Time;durP1;ratioP1;P1;durP2;ratioP2;P2;SDS_P1;SDS_P2;PMS_P1;PMS_P2;Temp;Humidity;BMP_temperature;BMP_pressure;BME280_temperature;BME280_humidity;BME280_pressure;Samples;Min_cycle;Max_cycle;Signal;HPM_P1;HPM_P2
2022/07/19 00:00:27;;;;;;;1.45;1.35;;;20.70;62.00;;;;;;4983689;28;20069;-82
2022/07/19 00:02:53;;;;;;;1.60;1.50;;;20.70;62.20;;;;;;4983981;28;20027;-82
2022/07/19 00:05:19;;;;;;;1.35;1.25;;;20.60;62.20;;;;;;4982601;28;20027;-81
2022/07/19 00:07:45;;;;;;;1.25;1.20;;;20.60;62.40;;;;;;4947479;28;20038;-80
2022/07/19 00:10:13;;;;;;;1.60;1.40;;;20.50;62.50;;;;;;4965372;29;20027;-82
2022/07/19 00:12:40;;;;;;;1.52;1.42;;;20.50;62.70;;;;;;4964407;29;20027;-81
2022/07/19 00:15:08;;;;;;;1.25;1.17;;;20.50;62.90;;;;;;4967233;29;20030;-82
2022/07/19 00:17:34;;;;;;;2.72;1.55;;;20.50;62.90;;;;;;4954504;29;20038;-82
2022/07/19 00:20:00;;;;;;;1.67;1.48;;;20.40;62.80;;;;;;4972098;29;20372;-83
2022/07/19 00:22:26;;;;;;;1.50;1.40;;;20.40;62.60;;;;;;4968234;28;20038;-82
2022/07/19 00:24:52;;;;;;;1.63;1.52;;;20.40;62.70;;;;;;4988008;28;20039;-81
2022/07/19 00:27:17;;;;;;;2.13;1.92;;;20.40;62.70;;;;;;4996276;28;20010;-81
2022/07/19 00:29:43;;;;;;;2.92;1.67;;;20.30;63.20;;;;;;4994527;28;20040;-81
2022/07/19 00:32:09;;;;;;;1.60;1.50;;;20.30;63.40;;;;;;4991141;28;20041;-80
2022/07/19 00:34:34;;;;;;;1.63;1.52;;;20.30;63.40;;;;;;4977764;28;20019;-78
2022/07/19 00:37:00;;;;;;;3.42;1.50;;;20.30;63.40;;;;;;4995273;28;20131;-80
2022/07/19 00:39:26;;;;;;;1.48;1.38;;;20.20;63.30;;;;;;4978350;28;20023;-79
2022/07/19 00:41:52;;;;;;;1.50;1.40;;;20.20;63.20;;;;;;4977715;28;20125;-80
2022/07/19 00:44:21;;;;;;;1.40;1.30;;;20.10;63.40;;;;;;4960716;28;20031;-78
2022/07/19 00:46:47;;;;;;;1.92;1.30;;;20.10;63.50;;;;;;4977222;28;20043;-79
2022/07/19 00:49:15;;;;;;;2.35;1.38;;;20.10;63.60;;;;;;4975256;28;20027;-80
2022/07/19 00:51:42;;;;;;;1.38;1.23;;;20.10;63.80;;;;;;4987763;28;20435;-83
2022/07/19 00:54:10;;;;;;;1.42;1.33;;;20.10;64.10;;;;;;4983721;28;20081;-81
2022/07/19 00:56:37;;;;;;;2.70;1.25;;;20.00;64.30;;;;;;4984243;28;20039;-81
2022/07/19 00:59:04;;;;;;;1.95;1.13;;;20.00;64.50;;;;;;4982101;28;20080;-82
2022/07/19 01:01:31;;;;;;;1.33;1.23;;;20.00;64.70;;;;;;4982946;28;20053;-81
2022/07/19 01:03:57;;;;;;;1.20;1.20;;;20.00;64.90;;;;;;4982005;28;20023;-81
2022/07/19 01:06:23;;;;;;;1.50;1.38;;;19.90;65.10;;;;;;4982261;28;20058;-81
2022/07/19 01:08:49;;;;;;;1.33;1.25;;;19.90;65.30;;;;;;4982769;28;20030;-82
2022/07/19 01:11:15;;;;;;;1.60;1.50;;;19.80;65.30;;;;;;4981875;28;20023;-81
2022/07/19 01:13:41;;;;;;;1.70;1.60;;;19.80;65.70;;;;;;4981252;28;20046;-82
2022/07/19 01:16:07;;;;;;;1.25;1.00;;;19.80;65.70;;;;;;4963348;28;20019;-82
2022/07/19 01:18:32;;;;;;;1.55;1.45;;;19.80;65.90;;;;;;4962953;29;20401;-82
2022/07/19 01:21:00;;;;;;;1.65;1.55;;;19.70;66.00;;;;;;4963686;28;20154;-81
2022/07/19 01:23:26;;;;;;;1.40;1.30;;;19.70;66.30;;;;;;4962600;29;20061;-82
2022/07/19 01:25:52;;;;;;;1.23;1.20;;;19.70;66.30;;;;;;4945300;29;20056;-81
2022/07/19 01:28:18;;;;;;;1.67;1.38;;;19.70;66.50;;;;;;5005456;23;20364;-82
2022/07/19 01:30:43;;;;;;;2.25;1.50;;;19.70;66.50;;;;;;5003292;28;20074;-84
2022/07/19 01:33:09;;;;;;;1.52;1.45;;;19.60;66.40;;;;;;5005126;28;20043;-83
2022/07/19 01:35:35;;;;;;;1.58;1.40;;;19.60;66.20;;;;;;5005170;28;20031;-83
2022/07/19 01:38:00;;;;;;;1.90;1.45;;;19.60;66.30;;;;;;4985680;28;20074;-83
2022/07/19 01:40:26;;;;;;;1.35;1.25;;;19.60;66.40;;;;;;4969645;28;20053;-85
2022/07/19 01:42:53;;;;;;;2.08;1.30;;;19.50;66.30;;;;;;4986228;28;20134;-83
2022/07/19 01:45:19;;;;;;;2.05;1.48;;;19.50;66.50;;;;;;4984695;28;20030;-83
2022/07/19 01:47:45;;;;;;;1.40;1.23;;;19.50;66.70;;;;;;4984697;28;20046;-83
2022/07/19 01:50:13;;;;;;;1.50;1.40;;;19.50;66.70;;;;;;4984351;28;20026;-83
2022/07/19 01:52:39;;;;;;;1.70;1.60;;;19.40;66.50;;;;;;4985487;28;20023;-84
2022/07/19 01:55:06;;;;;;;2.03;1.73;;;19.40;67.00;;;;;;4985816;28;20023;-84
2022/07/19 01:57:32;;;;;;;1.30;1.20;;;19.40;67.30;;;;;;4989386;28;20050;-84
2022/07/19 01:59:58;;;;;;;1.45;1.35;;;19.40;67.60;;;;;;4980412;28;20031;-85
2022/07/19 02:02:23;;;;;;;2.65;1.83;;;19.30;67.70;;;;;;4967910;28;20045;-85
2022/07/19 02:04:49;;;;;;;1.60;1.50;;;19.30;67.90;;;;;;4969349;29;20020;-84
2022/07/19 02:07:15;;;;;;;1.90;1.50;;;19.20;68.00;;;;;;4970453;28;20031;-88
2022/07/19 02:09:40;;;;;;;1.85;1.75;;;19.20;68.20;;;;;;4955109;29;20181;-85
2022/07/19 02:12:06;;;;;;;1.58;1.48;;;19.10;68.30;;;;;;4969861;28;20036;-86
2022/07/19 02:14:32;;;;;;;1.50;1.40;;;19.10;68.30;;;;;;4969757;28;20035;-83
2022/07/19 02:16:58;;;;;;;1.60;1.50;;;19.10;68.30;;;;;;4967651;28;20030;-85
2022/07/19 02:19:24;;;;;;;3.03;1.60;;;19.00;68.10;;;;;;4999315;28;20022;-84
2022/07/19 02:21:49;;;;;;;2.22;1.92;;;19.00;68.20;;;;;;4982973;28;20087;-83
2022/07/19 02:24:15;;;;;;;1.63;1.48;;;19.00;68.60;;;;;;5000076;28;20046;-84
2022/07/19 02:26:41;;;;;;;1.65;1.48;;;19.00;68.80;;;;;;4983319;28;20014;-84
2022/07/19 02:29:07;;;;;;;2.22;1.92;;;19.00;68.90;;;;;;5000219;28;20027;-82
2022/07/19 02:31:33;;;;;;;2.30;1.85;;;19.00;69.00;;;;;;4980660;28;20031;-85
2022/07/19 02:33:59;;;;;;;1.73;1.63;;;18.90;69.10;;;;;;4980309;28;20053;-86
2022/07/19 02:36:25;;;;;;;1.65;1.40;;;18.90;69.40;;;;;;4977582;28;20125;-84
2022/07/19 02:38:51;;;;;;;1.60;1.50;;;18.90;69.40;;;;;;4973981;28;20030;-85
2022/07/19 02:41:17;;;;;;;1.48;1.38;;;18.90;69.40;;;;;;4997929;28;20026;-86
2022/07/19 02:43:43;;;;;;;1.70;1.60;;;18.80;69.70;;;;;;4996983;28;20027;-85
2022/07/19 02:46:09;;;;;;;1.98;1.73;;;18.80;70.20;;;;;;4991054;28;20042;-84
2022/07/19 02:48:35;;;;;;;1.88;1.77;;;18.80;70.20;;;;;;4991658;28;20027;-83
2022/07/19 02:51:01;;;;;;;2.40;1.52;;;18.80;70.20;;;;;;4973072;28;20039;-85
2022/07/19 02:53:27;;;;;;;1.73;1.30;;;18.70;70.30;;;;;;4989143;28;20078;-82
2022/07/19 02:55:53;;;;;;;1.95;1.80;;;18.70;70.60;;;;;;4970119;28;20034;-81
2022/07/19 02:58:19;;;;;;;1.60;1.50;;;18.70;71.00;;;;;;4988635;28;20014;-82
2022/07/19 03:00:45;;;;;;;1.70;1.60;;;18.60;71.30;;;;;;4990373;28;20054;-83
2022/07/19 03:05:55;;;;;;;2.10;2.00;;;18.60;71.30;;;;;;4996394;28;20030;-83
2022/07/19 03:08:21;;;;;;;2.08;1.88;;;18.60;71.20;;;;;;5000099;28;20031;-86
2022/07/19 03:10:47;;;;;;;1.70;1.60;;;18.60;71.10;;;;;;5000343;28;20015;-85
2022/07/19 03:13:12;;;;;;;1.45;1.35;;;18.60;71.10;;;;;;5000186;28;20120;-85
2022/07/19 03:15:38;;;;;;;1.88;1.65;;;18.50;71.10;;;;;;5000312;28;20043;-86
2022/07/19 03:18:04;;;;;;;1.85;1.75;;;18.50;71.30;;;;;;5000349;28;20029;-83
2022/07/19 03:20:30;;;;;;;2.05;1.50;;;18.50;71.60;;;;;;5000374;28;20030;-85
2022/07/19 03:22:56;;;;;;;1.73;1.63;;;18.40;71.70;;;;;;4981747;28;20146;-84
2022/07/19 03:25:21;;;;;;;2.00;1.90;;;18.40;71.60;;;;;;4992584;28;20090;-85
2022/07/19 03:27:48;;;;;;;1.88;1.77;;;18.40;71.70;;;;;;4992531;28;20019;-84
2022/07/19 03:30:14;;;;;;;2.28;1.40;;;18.40;71.60;;;;;;4991850;28;20035;-83
2022/07/19 03:32:40;;;;;;;1.70;1.60;;;18.40;71.50;;;;;;4988627;28;20361;-84
2022/07/19 03:35:06;;;;;;;1.58;1.50;;;18.40;71.40;;;;;;4989901;28;20086;-84
2022/07/19 03:37:32;;;;;;;3.28;2.05;;;18.40;71.30;;;;;;4988769;28;20035;-83
2022/07/19 03:39:57;;;;;;;2.78;2.03;;;18.40;71.20;;;;;;4987740;28;20030;-84
2022/07/19 03:42:23;;;;;;;1.98;1.70;;;18.30;71.10;;;;;;4988305;28;20436;-85
2022/07/19 03:44:49;;;;;;;3.42;2.00;;;18.30;71.00;;;;;;4989909;28;20051;-83
2022/07/19 03:47:15;;;;;;;1.75;1.40;;;18.20;71.00;;;;;;4976921;28;20098;-84
2022/07/19 03:49:40;;;;;;;1.50;1.40;;;18.20;71.00;;;;;;4973652;28;20107;-83
2022/07/19 03:52:06;;;;;;;1.58;1.48;;;18.20;70.90;;;;;;4973916;28;20031;-85
2022/07/19 03:54:32;;;;;;;1.60;1.35;;;18.20;70.70;;;;;;4970244;28;20038;-83
2022/07/19 03:56:57;;;;;;;1.70;1.60;;;18.30;70.80;;;;;;4970250;28;20046;-85
2022/07/19 03:59:23;;;;;;;1.90;1.60;;;18.30;70.60;;;;;;4991943;28;20027;-82
2022/07/19 04:01:51;;;;;;;1.95;1.70;;;18.30;70.40;;;;;;4966141;29;20027;-82
2022/07/19 04:04:17;;;;;;;2.70;1.42;;;18.30;70.60;;;;;;4948634;29;20445;-83
2022/07/19 04:06:43;;;;;;;1.58;1.48;;;18.30;70.50;;;;;;4967770;28;20030;-80
2022/07/19 04:09:09;;;;;;;2.22;1.77;;;18.20;70.40;;;;;;4990119;28;20023;-82
2022/07/19 04:11:35;;;;;;;3.17;1.70;;;18.30;70.50;;;;;;4992880;28;20050;-84
2022/07/19 04:14:00;;;;;;;2.13;1.80;;;18.30;70.70;;;;;;4984767;28;20074;-79
2022/07/19 04:16:26;;;;;;;2.40;1.55;;;18.30;70.70;;;;;;4980941;28;20014;-79
2022/07/19 04:18:52;;;;;;;1.48;1.38;;;18.50;73.30;;;;;;4983302;28;20467;-80
2022/07/19 04:21:17;;;;;;;1.85;1.60;;;18.40;70.10;;;;;;4980527;28;20083;-79
2022/07/19 04:23:43;;;;;;;2.00;1.70;;;18.50;71.30;;;;;;4978415;28;20105;-80
2022/07/19 04:26:09;;;;;;;2.05;1.75;;;18.50;71.30;;;;;;4963019;28;20027;-80
2022/07/19 04:28:34;;;;;;;2.80;2.00;;;18.40;69.50;;;;;;4982088;28;20115;-80
2022/07/19 04:31:00;;;;;;;3.42;2.20;;;18.40;69.60;;;;;;4981117;28;20026;-80
2022/07/19 04:33:26;;;;;;;3.55;1.60;;;18.50;69.50;;;;;;4963737;28;20031;-78
2022/07/19 04:35:53;;;;;;;1.45;1.35;;;18.50;69.20;;;;;;4983928;28;20122;-77
2022/07/19 04:38:22;;;;;;;2.08;1.73;;;18.70;68.50;;;;;;4993616;28;20070;-78
2022/07/19 04:40:48;;;;;;;1.73;1.63;;;18.70;68.70;;;;;;4988688;28;20041;-80
2022/07/19 04:43:15;;;;;;;2.60;1.58;;;18.80;67.60;;;;;;4983296;28;20022;-83
2022/07/19 04:45:41;;;;;;;1.40;1.30;;;18.80;67.10;;;;;;4985273;28;20018;-82
2022/07/19 04:48:08;;;;;;;3.28;2.17;;;18.90;66.60;;;;;;4991022;28;20026;-82
2022/07/19 04:50:33;;;;;;;2.15;1.40;;;19.00;66.30;;;;;;4972193;28;20027;-81
2022/07/19 04:52:59;;;;;;;1.60;1.50;;;19.00;66.20;;;;;;4988298;28;20105;-79
2022/07/19 04:55:25;;;;;;;3.25;1.73;;;19.00;65.80;;;;;;4965574;28;20039;-79
2022/07/19 04:57:50;;;;;;;4.70;1.42;;;19.10;65.70;;;;;;4985874;28;20019;-80
2022/07/19 05:00:16;;;;;;;3.10;1.40;;;19.20;65.40;;;;;;4988720;28;20082;-80
2022/07/19 05:02:42;;;;;;;1.60;1.50;;;19.30;65.00;;;;;;4969133;28;20627;-79
2022/07/19 05:05:09;;;;;;;1.77;1.40;;;19.30;64.70;;;;;;4988225;28;20110;-79
2022/07/19 05:07:35;;;;;;;1.85;1.75;;;19.40;64.50;;;;;;4985305;28;20106;-77
2022/07/19 05:10:00;;;;;;;2.35;1.40;;;19.60;64.30;;;;;;4987705;28;20035;-78
2022/07/19 05:12:26;;;;;;;1.98;1.50;;;19.70;64.10;;;;;;4987113;28;20023;-78
2022/07/19 05:14:52;;;;;;;1.83;1.30;;;19.80;63.90;;;;;;4986855;28;20049;-79
2022/07/19 05:17:17;;;;;;;1.92;1.73;;;20.20;63.70;;;;;;4988292;28;20106;-79
2022/07/19 05:19:43;;;;;;;2.45;1.70;;;22.20;60.70;;;;;;4989234;28;20041;-79
2022/07/19 05:22:09;;;;;;;3.80;1.83;;;24.40;55.80;;;;;;4972621;28;20625;-79
2022/07/19 05:24:35;;;;;;;1.50;1.40;;;26.60;51.40;;;;;;4974493;28;20031;-79
2022/07/19 05:27:00;;;;;;;1.25;1.15;;;29.00;47.40;;;;;;4974322;28;20085;-79
2022/07/19 05:29:26;;;;;;;1.50;1.40;;;30.60;44.50;;;;;;4987345;28;20034;-78
2022/07/19 05:31:52;;;;;;;1.58;1.48;;;32.50;42.30;;;;;;4987396;28;20035;-78
2022/07/19 05:34:17;;;;;;;1.60;1.50;;;33.10;40.20;;;;;;4991672;28;20055;-79
2022/07/19 05:36:43;;;;;;;2.00;1.55;;;32.80;39.60;;;;;;4992492;28;20027;-79
2022/07/19 05:39:08;;;;;;;1.60;1.50;;;31.20;39.80;;;;;;4964290;28;20023;-76
2022/07/19 05:41:34;;;;;;;2.17;1.80;;;30.00;42.30;;;;;;4981061;28;20090;-78
2022/07/19 05:44:01;;;;;;;1.48;1.38;;;30.80;42.10;;;;;;4972938;28;20050;-78
2022/07/19 05:46:26;;;;;;;4.03;1.80;;;32.50;41.10;;;;;;4987450;28;20065;-78
2022/07/19 05:48:52;;;;;;;2.40;2.20;;;33.70;38.80;;;;;;4982802;28;20050;-79
2022/07/19 05:51:17;;;;;;;4.72;1.70;;;33.80;38.20;;;;;;4984005;28;20517;-78
2022/07/19 05:53:43;;;;;;;2.30;1.65;;;33.60;37.80;;;;;;4990269;28;20075;-79
2022/07/19 05:56:09;;;;;;;4.15;1.95;;;33.60;38.30;;;;;;4985742;28;20023;-78
2022/07/19 05:58:35;;;;;;;2.70;2.03;;;33.80;37.60;;;;;;4972612;28;20057;-79
2022/07/19 06:01:18;;;;;;;4.43;2.17;;;33.80;38.60;;;;;;4983276;28;20019;-78
2022/07/19 06:03:45;;;;;;;2.78;1.50;;;35.00;37.60;;;;;;4984766;28;20023;-78
2022/07/19 06:06:12;;;;;;;1.60;1.48;;;35.60;36.80;;;;;;4966664;28;20041;-79
2022/07/19 06:08:37;;;;;;;1.80;1.70;;;36.40;36.30;;;;;;4990619;28;20031;-80
2022/07/19 06:11:03;;;;;;;1.65;1.50;;;36.80;35.80;;;;;;4986954;28;20096;-78
2022/07/19 06:13:29;;;;;;;2.22;1.80;;;37.00;35.80;;;;;;5006248;28;20026;-78
2022/07/19 06:15:55;;;;;;;2.55;2.17;;;37.20;35.10;;;;;;4996682;28;20078;-78
2022/07/19 06:18:21;;;;;;;7.38;2.47;;;37.30;35.30;;;;;;4994605;28;20033;-78
2022/07/19 06:20:46;;;;;;;2.55;1.92;;;37.30;36.60;;;;;;4977620;28;20027;-78
2022/07/19 06:23:13;;;;;;;4.18;1.95;;;36.70;34.70;;;;;;4995157;28;20043;-85
2022/07/19 06:25:47;;;;;;;2.90;1.95;;;36.00;35.70;;;;;;4998812;28;20050;-84
2022/07/19 06:28:40;;;;;;;2.30;2.10;;;35.80;35.70;;;;;;4973146;28;20044;-86
2022/07/19 06:31:43;;;;;;;2.08;1.88;;;35.40;36.30;;;;;;4960740;28;20043;-87
2022/07/19 06:37:46;;;;;;;2.20;1.63;;;36.30;36.00;;;;;;4942065;29;20042;-87
2022/07/19 06:43:35;;;;;;;2.08;1.85;;;37.90;35.30;;;;;;4942036;29;20071;-82
2022/07/19 06:46:01;;;;;;;2.25;2.05;;;38.90;34.70;;;;;;4951340;29;20115;-85
2022/07/19 06:48:27;;;;;;;1.98;1.73;;;39.40;33.90;;;;;;4969240;28;20130;-83
2022/07/19 06:50:55;;;;;;;2.33;1.83;;;39.10;33.90;;;;;;4995332;28;20085;-84
2022/07/19 06:53:21;;;;;;;2.35;2.15;;;39.40;33.80;;;;;;4996437;28;20045;-86
2022/07/19 06:55:47;;;;;;;2.10;1.50;;;39.20;33.30;;;;;;4995069;28;20053;-83
2022/07/19 06:58:13;;;;;;;1.92;1.70;;;38.70;33.70;;;;;;4994334;28;20491;-85
2022/07/19 07:00:40;;;;;;;1.65;1.55;;;39.40;33.70;;;;;;4993317;28;20023;-83
2022/07/19 07:03:05;;;;;;;1.80;1.70;;;39.70;33.10;;;;;;4976482;28;20039;-84
2022/07/19 07:05:31;;;;;;;1.70;1.60;;;39.50;33.20;;;;;;4992210;28;20038;-84
2022/07/19 07:07:57;;;;;;;4.88;1.90;;;39.60;33.00;;;;;;4993906;28;20026;-84
2022/07/19 07:10:22;;;;;;;2.63;1.95;;;39.40;33.00;;;;;;4993826;28;20468;-85
2022/07/19 07:12:49;;;;;;;4.78;2.38;;;39.30;33.20;;;;;;4975145;28;20023;-84
2022/07/19 07:15:18;;;;;;;3.05;2.25;;;39.40;33.20;;;;;;4972550;28;20381;-82
2022/07/19 07:17:44;;;;;;;2.70;2.20;;;38.30;32.90;;;;;;4954111;28;20019;-82
2022/07/19 07:20:10;;;;;;;3.72;2.15;;;35.50;34.60;;;;;;4954267;29;20027;-83
2022/07/19 07:22:36;;;;;;;4.18;2.20;;;32.30;37.70;;;;;;4970798;28;20040;-84
2022/07/19 07:25:04;;;;;;;2.45;1.65;;;30.00;41.00;;;;;;4971038;29;20027;-83
2022/07/19 07:27:29;;;;;;;1.50;1.40;;;28.30;43.60;;;;;;4982333;28;20380;-83
2022/07/19 07:29:55;;;;;;;3.90;1.83;;;27.10;45.70;;;;;;4997169;23;20039;-83
2022/07/19 07:32:21;;;;;;;2.58;2.13;;;26.40;47.40;;;;;;4981199;28;20082;-86
2022/07/19 07:34:47;;;;;;;2.55;2.17;;;25.90;48.10;;;;;;4980039;28;20027;-85
2022/07/19 07:37:13;;;;;;;5.57;1.92;;;25.60;48.90;;;;;;4981377;28;20026;-86
2022/07/19 07:39:39;;;;;;;2.70;1.70;;;25.50;48.80;;;;;;4967312;28;20019;-86
2022/07/19 07:42:05;;;;;;;5.20;1.67;;;25.30;49.10;;;;;;4957748;28;20093;-86
2022/07/19 07:44:31;;;;;;;2.60;1.65;;;25.20;49.40;;;;;;4957951;29;20038;-85
2022/07/19 07:46:57;;;;;;;1.95;1.75;;;25.30;50.00;;;;;;4960238;28;20031;-86
2022/07/19 07:49:23;;;;;;;5.10;1.88;;;25.30;50.10;;;;;;4962540;28;20567;-86
2022/07/19 07:51:49;;;;;;;4.88;2.17;;;25.40;50.10;;;;;;4945497;29;20031;-85
2022/07/19 07:54:15;;;;;;;2.85;2.10;;;25.50;50.00;;;;;;4961948;28;20019;-83
2022/07/19 07:56:41;;;;;;;1.77;1.67;;;25.50;49.50;;;;;;4962802;28;20039;-85
2022/07/19 07:59:07;;;;;;;3.90;1.80;;;25.50;49.10;;;;;;4961837;28;20019;-83
2022/07/19 08:01:34;;;;;;;2.20;1.67;;;25.50;48.70;;;;;;4962588;28;20031;-83
2022/07/19 08:04:02;;;;;;;2.65;1.63;;;25.60;48.70;;;;;;4969010;28;20034;-85
2022/07/19 08:07:10;;;;;;;2.08;1.60;;;25.60;48.40;;;;;;4978725;28;20049;-83
2022/07/19 08:13:49;;;;;;;3.27;1.53;;;25.90;48.30;;;;;;4943898;29;20063;-84
2022/07/19 08:17:45;;;;;;;4.20;1.83;;;26.00;48.20;;;;;;4930109;29;20283;-84
2022/07/19 08:20:15;;;;;;;1.58;1.40;;;26.20;47.20;;;;;;4853252;29;20048;-86
2022/07/19 08:22:41;;;;;;;2.38;1.77;;;26.30;47.70;;;;;;4829158;29;20033;-85
2022/07/19 08:25:26;;;;;;;3.33;2.28;;;26.40;45.70;;;;;;4880113;29;20032;-85
2022/07/19 08:28:38;;;;;;;2.95;1.73;;;26.50;45.00;;;;;;4925726;29;20415;-86
2022/07/19 08:34:42;;;;;;;6.25;2.30;;;26.80;44.40;;;;;;4897805;29;20023;-85
2022/07/19 08:38:01;;;;;;;6.78;2.20;;;27.00;44.20;;;;;;4905054;29;20045;-84
2022/07/19 08:41:15;;;;;;;2.95;1.80;;;27.00;43.60;;;;;;4886604;29;20611;-82
2022/07/19 08:43:43;;;;;;;3.95;1.73;;;27.30;42.90;;;;;;4891197;29;20050;-85
2022/07/19 08:46:09;;;;;;;1.73;1.52;;;27.30;42.40;;;;;;4907498;29;20119;-85
2022/07/19 08:48:36;;;;;;;2.08;1.10;;;27.50;42.40;;;;;;4922181;29;20043;-86
2022/07/19 08:51:04;;;;;;;5.72;1.23;;;27.50;42.10;;;;;;4946864;29;20044;-84
2022/07/19 08:53:31;;;;;;;4.65;1.55;;;27.60;40.70;;;;;;4946889;29;20109;-85
2022/07/19 08:55:58;;;;;;;6.10;1.25;;;27.70;40.80;;;;;;4956453;29;20127;-83
2022/07/19 08:58:24;;;;;;;2.00;1.40;;;27.80;40.70;;;;;;4962729;28;20019;-85
2022/07/19 09:00:50;;;;;;;6.22;1.48;;;27.90;40.10;;;;;;4963778;29;20031;-83
2022/07/19 09:03:16;;;;;;;1.50;1.40;;;27.90;39.90;;;;;;4961724;29;20019;-85
2022/07/19 09:05:41;;;;;;;4.65;1.40;;;28.00;39.60;;;;;;4964967;28;20031;-83
2022/07/19 09:08:15;;;;;;;1.42;1.20;;;28.10;39.90;;;;;;4964092;28;20023;-84
2022/07/19 09:11:14;;;;;;;1.85;1.75;;;28.20;39.50;;;;;;4944620;29;20087;-84
2022/07/19 09:13:35;;;;;;;2.63;1.65;;;28.20;39.50;;;;;;4960159;29;20046;-84
2022/07/19 09:16:01;;;;;;;1.73;1.45;;;28.30;39.90;;;;;;4944942;29;20027;-84
2022/07/19 09:18:28;;;;;;;3.35;2.30;;;28.50;39.70;;;;;;4965648;28;20032;-84
2022/07/19 09:20:56;;;;;;;1.60;1.50;;;28.70;38.50;;;;;;4966346;29;20051;-82
2022/07/19 09:23:23;;;;;;;2.35;1.55;;;28.80;38.50;;;;;;4962691;28;20097;-85
2022/07/19 09:25:52;;;;;;;1.73;1.52;;;28.80;38.70;;;;;;4962870;28;20038;-85
2022/07/19 09:28:19;;;;;;;2.35;1.50;;;29.00;38.20;;;;;;4957370;28;20023;-85
2022/07/19 09:30:48;;;;;;;3.83;1.10;;;29.20;38.40;;;;;;4959726;28;20432;-84
2022/07/19 09:33:17;;;;;;;2.03;1.83;;;29.20;38.80;;;;;;4950759;29;20027;-83
2022/07/19 09:35:52;;;;;;;3.80;1.85;;;29.30;38.90;;;;;;4976659;28;20047;-82
2022/07/19 09:38:19;;;;;;;3.20;1.80;;;29.50;38.60;;;;;;4975786;28;20011;-83
2022/07/19 09:40:47;;;;;;;1.45;1.30;;;29.70;38.30;;;;;;4969231;28;20088;-83
2022/07/19 09:43:13;;;;;;;2.72;1.48;;;29.70;38.00;;;;;;4938129;29;20036;-84
2022/07/19 09:45:39;;;;;;;1.48;1.40;;;29.70;37.40;;;;;;4953373;29;20032;-81
2022/07/19 09:48:05;;;;;;;3.05;1.48;;;29.70;38.40;;;;;;4976261;28;20011;-82
2022/07/19 09:50:31;;;;;;;1.60;1.50;;;29.90;37.90;;;;;;4976078;28;20051;-83
2022/07/19 09:53:05;;;;;;;2.58;1.92;;;30.10;38.10;;;;;;4960367;28;20023;-83
2022/07/19 09:55:32;;;;;;;3.03;1.48;;;30.20;38.10;;;;;;4976846;28;20047;-82
2022/07/19 09:58:01;;;;;;;3.15;1.63;;;30.30;38.20;;;;;;4976956;28;20028;-83
2022/07/19 10:00:27;;;;;;;1.80;1.42;;;30.40;37.60;;;;;;4974824;28;20070;-83
2022/07/19 10:02:54;;;;;;;2.22;1.63;;;30.50;37.70;;;;;;4953721;28;20611;-83
2022/07/19 10:05:20;;;;;;;2.60;1.52;;;30.70;37.70;;;;;;4963243;29;20035;-84
2022/07/19 10:07:47;;;;;;;4.75;1.55;;;30.80;37.40;;;;;;4964365;29;20023;-84
2022/07/19 10:10:16;;;;;;;5.78;1.60;;;31.00;36.80;;;;;;4963264;28;20051;-85
2022/07/19 10:12:44;;;;;;;5.90;1.45;;;30.90;37.00;;;;;;4946524;29;20062;-86
2022/07/19 10:15:12;;;;;;;1.70;1.33;;;30.80;36.90;;;;;;4969675;29;20031;-84
2022/07/19 10:18:01;;;;;;;2.42;1.73;;;30.70;37.20;;;;;;4976566;28;20015;-81
2022/07/19 10:20:29;;;;;;;3.35;1.60;;;30.80;37.60;;;;;;4960948;28;20023;-83
2022/07/19 10:23:00;;;;;;;3.95;1.63;;;30.90;37.20;;;;;;4973923;28;20106;-84
2022/07/19 10:25:40;;;;;;;4.77;2.33;;;31.00;37.00;;;;;;4977361;28;20046;-84
2022/07/19 10:28:27;;;;;;;3.38;1.80;;;31.00;37.10;;;;;;4968188;28;20263;-83
2022/07/19 10:30:53;;;;;;;1.63;1.52;;;31.00;37.40;;;;;;4974371;28;20019;-83
2022/07/19 10:44:19;;;;;;;1.83;1.73;;;31.60;36.00;;;;;;4900624;29;20072;-85
2022/07/19 11:01:19;;;;;;;1.75;1.65;;;32.30;33.90;;;;;;4904472;29;20126;-83
2022/07/19 11:15:02;;;;;;;4.65;2.22;;;32.70;33.40;;;;;;4894941;29;20139;-86
2022/07/19 11:38:11;;;;;;;3.90;2.92;;;33.10;32.60;;;;;;4869790;29;20483;-85
2022/07/19 11:40:37;;;;;;;2.70;2.42;;;33.20;31.60;;;;;;4948822;28;20039;-85
2022/07/19 11:43:07;;;;;;;7.20;2.95;;;33.40;31.40;;;;;;4958590;28;20226;-85
2022/07/19 11:45:42;;;;;;;3.27;2.97;;;33.50;31.10;;;;;;4962990;28;20058;-83
2022/07/19 11:48:08;;;;;;;3.10;2.88;;;33.50;31.10;;;;;;4981366;28;20019;-84
2022/07/19 11:50:34;;;;;;;3.67;3.38;;;33.50;30.80;;;;;;4962753;28;20106;-83
2022/07/19 11:53:00;;;;;;;3.67;2.75;;;33.60;31.00;;;;;;4960003;28;20031;-83
2022/07/19 11:55:29;;;;;;;4.07;3.70;;;33.70;31.40;;;;;;4959586;29;20024;-83
2022/07/19 11:57:56;;;;;;;3.53;3.22;;;33.70;31.10;;;;;;4961958;29;20023;-84
2022/07/19 12:00:22;;;;;;;3.65;3.30;;;33.80;31.30;;;;;;4962189;29;20050;-84
2022/07/19 12:02:51;;;;;;;3.65;3.33;;;33.80;31.60;;;;;;4976990;28;20026;-83
2022/07/19 12:05:17;;;;;;;5.82;3.40;;;33.80;31.80;;;;;;4976331;28;20058;-86
2022/07/19 12:07:50;;;;;;;4.10;3.53;;;33.90;32.00;;;;;;4967385;28;20027;-84
2022/07/19 12:10:40;;;;;;;4.43;3.20;;;33.80;32.20;;;;;;4964921;28;20078;-84
2022/07/19 12:13:09;;;;;;;7.22;3.97;;;33.90;32.50;;;;;;4961369;29;20027;-83
2022/07/19 12:15:50;;;;;;;3.80;3.40;;;34.10;32.40;;;;;;4963462;28;20053;-83
2022/07/19 12:18:17;;;;;;;;;;;34.10;32.10;;;;;;4961700;28;20019;-85
2022/07/19 12:20:44;;;;;;;5.55;3.63;;;34.20;32.20;;;;;;4942876;29;19910;-84
2022/07/19 12:23:16;;;;;;;3.58;3.28;;;34.20;32.10;;;;;;4959366;28;20054;-84
2022/07/19 12:25:42;;;;;;;5.30;3.92;;;34.30;32.30;;;;;;4958659;29;20038;-85
2022/07/19 12:28:08;;;;;;;4.45;4.05;;;34.30;32.30;;;;;;4959557;28;20027;-83
2022/07/19 12:30:34;;;;;;;3.60;3.30;;;34.20;32.30;;;;;;4958599;29;20040;-83
2022/07/19 12:33:11;;;;;;;5.85;3.60;;;34.20;33.10;;;;;;4960582;29;20416;-81
2022/07/19 12:35:42;;;;;;;4.55;2.92;;;34.30;33.30;;;;;;4963179;29;20034;-83
2022/07/19 12:38:09;;;;;;;4.20;3.83;;;34.30;33.80;;;;;;4966085;28;20082;-82
2022/07/19 12:40:36;;;;;;;4.32;3.17;;;34.20;34.00;;;;;;4970113;28;20118;-83
2022/07/19 12:43:05;;;;;;;3.05;2.75;;;34.40;34.20;;;;;;4978265;28;20052;-82
2022/07/19 12:45:33;;;;;;;3.65;3.38;;;34.40;33.60;;;;;;4992712;28;20028;-82
2022/07/19 12:48:00;;;;;;;3.28;3.03;;;34.30;33.60;;;;;;4976738;28;20029;-81
2022/07/19 12:50:31;;;;;;;3.45;3.15;;;34.20;34.00;;;;;;4968435;28;20164;-83
2022/07/19 12:52:59;;;;;;;3.30;2.97;;;34.30;33.90;;;;;;4977738;28;20780;-83
2022/07/19 12:55:26;;;;;;;5.82;3.75;;;34.30;34.20;;;;;;4960568;28;20039;-83
2022/07/19 12:57:54;;;;;;;8.18;3.60;;;34.30;34.40;;;;;;4955423;29;20019;-83
2022/07/19 13:00:21;;;;;;;5.35;3.78;;;34.30;34.10;;;;;;4945548;29;20023;-82
2022/07/19 13:02:48;;;;;;;4.40;3.85;;;34.30;33.70;;;;;;4961816;28;20097;-83
2022/07/19 13:05:14;;;;;;;4.25;3.85;;;34.30;34.20;;;;;;4961508;28;20030;-84
2022/07/19 13:07:40;;;;;;;9.43;4.03;;;;;;;;;;4943052;29;20024;-84
2022/07/19 13:10:07;;;;;;;8.52;4.05;;;34.30;33.60;;;;;;4961753;28;20023;-84
2022/07/19 13:12:34;;;;;;;4.30;3.60;;;34.00;34.70;;;;;;4964376;28;20035;-83
2022/07/19 13:15:00;;;;;;;4.35;3.55;;;33.90;35.00;;;;;;4954236;28;20466;-80
2022/07/19 13:17:26;;;;;;;9.00;4.03;;;34.00;35.20;;;;;;4942139;29;20507;-82
2022/07/19 13:19:51;;;;;;;4.38;3.45;;;34.10;35.10;;;;;;4960190;28;20043;-83
2022/07/19 13:22:18;;;;;;;6.90;3.90;;;34.20;35.20;;;;;;4966498;29;20054;-82
2022/07/19 13:24:44;;;;;;;7.65;4.50;;;34.20;35.10;;;;;;4973238;28;20436;-82
2022/07/19 13:27:09;;;;;;;8.30;4.60;;;34.20;34.80;;;;;;4967620;29;20079;-82
2022/07/19 13:29:36;;;;;;;14.52;4.93;;;34.20;34.70;;;;;;4982465;23;20106;-82
2022/07/19 13:32:03;;;;;;;6.65;4.28;;;34.30;34.90;;;;;;5025931;28;20041;-81
2022/07/19 13:34:29;;;;;;;8.57;5.20;;;34.00;35.40;;;;;;5025492;28;20025;-81
2022/07/19 13:36:54;;;;;;;9.18;4.60;;;34.00;35.50;;;;;;5004472;28;20427;-82
2022/07/19 13:39:20;;;;;;;4.88;4.30;;;34.00;35.60;;;;;;4995250;28;20029;-82
2022/07/19 13:41:46;;;;;;;6.22;4.45;;;33.90;35.70;;;;;;5003612;28;20227;-82
2022/07/19 13:44:12;;;;;;;6.43;4.40;;;33.90;35.70;;;;;;5002127;28;20030;-82
2022/07/19 13:46:38;;;;;;;8.13;4.07;;;33.90;35.50;;;;;;5001647;28;20402;-82
2022/07/19 13:49:03;;;;;;;5.82;4.28;;;34.00;35.20;;;;;;5001497;28;20032;-82
2022/07/19 13:51:29;;;;;;;5.88;4.72;;;34.00;35.40;;;;;;4998668;28;20431;-81
2022/07/19 13:53:55;;;;;;;10.35;5.10;;;33.90;35.30;;;;;;5001464;28;20095;-82
2022/07/19 13:56:22;;;;;;;5.22;4.68;;;34.00;34.70;;;;;;4999382;28;20027;-81
2022/07/19 13:58:48;;;;;;;8.15;5.30;;;33.90;35.10;;;;;;4983062;28;20113;-82
2022/07/19 14:01:14;;;;;;;10.60;5.15;;;34.10;35.10;;;;;;5007332;28;20054;-81
2022/07/19 14:03:40;;;;;;;4.82;4.40;;;34.30;35.10;;;;;;5008529;28;20027;-82
2022/07/19 14:06:06;;;;;;;9.80;4.97;;;34.70;35.30;;;;;;5006614;28;20026;-81